sensor_id;sensor_type;location;lat;lon;timestamp;pressure;altitude;pressure_sealevel;temperature;humidity
78409;BME280;67697;50.750;-3.270;2023-10-09T00:01:44;101657.43;;;16.16;60.00
78409;BME280;67697;50.750;-3.270;2023-10-09T00:04:10;101657.66;;;16.26;60.50
78409;BME280;67697;50.750;-3.270;2023-10-09T00:06:35;101655.53;;;16.51;59.20
78409;BME280;67697;50.750;-3.270;2023-10-09T00:09:01;101657.76;;;16.11;60.13
78409;BME280;67697;50.750;-3.270;2023-10-09T00:11:26;101651.85;;;16.88;58.62
78409;BME280;67697;50.750;-3.270;2023-10-09T00:13:51;101654.75;;;16.47;59.71
78409;BME280;67697;50.750;-3.270;2023-10-09T00:16:18;101651.81;;;15.80;61.78
78409;BME280;67697;50.750;-3.270;2023-10-09T00:18:42;101649.78;;;15.61;62.90
78409;BME280;67697;50.750;-3.270;2023-10-09T00:21:13;101647.28;;;15.58;64.78
78409;BME280;67697;50.750;-3.270;2023-10-09T00:23:33;101647.70;;;15.59;64.25
78409;BME280;67697;50.750;-3.270;2023-10-09T00:25:58;101645.94;;;15.24;63.47
78409;BME280;67697;50.750;-3.270;2023-10-09T00:28:25;101640.57;;;15.09;63.91
78409;BME280;67697;50.750;-3.270;2023-10-09T00:30:50;101642.43;;;15.16;63.21
78409;BME280;67697;50.750;-3.270;2023-10-09T00:33:15;101644.86;;;15.35;62.66
78409;BME280;67697;50.750;-3.270;2023-10-09T00:35:40;101643.74;;;15.98;61.07
78409;BME280;67697;50.750;-3.270;2023-10-09T00:38:06;101643.53;;;16.34;61.41
78409;BME280;67697;50.750;-3.270;2023-10-09T00:40:32;101645.71;;;15.29;63.66
78409;BME280;67697;50.750;-3.270;2023-10-09T00:42:59;101643.24;;;14.24;69.14
78409;BME280;67697;50.750;-3.270;2023-10-09T00:45:23;101642.25;;;13.73;71.65
78409;BME280;67697;50.750;-3.270;2023-10-09T00:47:48;101647.18;;;14.51;69.78
78409;BME280;67697;50.750;-3.270;2023-10-09T00:50:13;101640.76;;;15.06;66.65
78409;BME280;67697;50.750;-3.270;2023-10-09T00:52:39;101637.42;;;14.34;66.47
78409;BME280;67697;50.750;-3.270;2023-10-09T00:55:05;101636.98;;;15.33;63.50
78409;BME280;67697;50.750;-3.270;2023-10-09T00:57:30;101635.34;;;15.14;64.10
78409;BME280;67697;50.750;-3.270;2023-10-09T00:59:54;101633.90;;;15.07;63.31
78409;BME280;67697;50.750;-3.270;2023-10-09T01:02:20;101634.49;;;15.79;61.79
78409;BME280;67697;50.750;-3.270;2023-10-09T01:04:45;101626.49;;;15.12;63.32
78409;BME280;67697;50.750;-3.270;2023-10-09T01:07:11;101625.81;;;14.35;65.55
78409;BME280;67697;50.750;-3.270;2023-10-09T01:09:37;101631.28;;;14.58;65.39
78409;BME280;67697;50.750;-3.270;2023-10-09T01:12:02;101631.95;;;14.34;68.03
78409;BME280;67697;50.750;-3.270;2023-10-09T01:14:27;101634.25;;;14.19;68.61
78409;BME280;67697;50.750;-3.270;2023-10-09T01:16:53;101635.36;;;14.23;68.64
78409;BME280;67697;50.750;-3.270;2023-10-09T01:19:19;101632.91;;;14.42;66.87
78409;BME280;67697;50.750;-3.270;2023-10-09T01:21:44;101631.42;;;14.68;66.37
78409;BME280;67697;50.750;-3.270;2023-10-09T01:24:09;101631.91;;;14.63;65.79
78409;BME280;67697;50.750;-3.270;2023-10-09T01:26:36;101626.07;;;14.56;66.95
78409;BME280;67697;50.750;-3.270;2023-10-09T01:29:00;101627.81;;;14.15;66.66
78409;BME280;67697;50.750;-3.270;2023-10-09T01:31:26;101630.82;;;14.38;66.00
78409;BME280;67697;50.750;-3.270;2023-10-09T01:33:50;101632.05;;;15.09;62.15
78409;BME280;67697;50.750;-3.270;2023-10-09T01:36:16;101628.65;;;15.14;61.00
78409;BME280;67697;50.750;-3.270;2023-10-09T01:38:40;101629.88;;;14.98;61.77
78409;BME280;67697;50.750;-3.270;2023-10-09T01:41:10;101625.97;;;15.27;60.56
78409;BME280;67697;50.750;-3.270;2023-10-09T01:43:31;101624.48;;;14.45;62.42
78409;BME280;67697;50.750;-3.270;2023-10-09T01:45:56;101621.74;;;14.69;62.05
78409;BME280;67697;50.750;-3.270;2023-10-09T01:48:21;101617.73;;;14.33;62.48
78409;BME280;67697;50.750;-3.270;2023-10-09T01:50:47;101624.74;;;13.13;64.88
78409;BME280;67697;50.750;-3.270;2023-10-09T01:53:13;101621.15;;;15.00;61.00
78409;BME280;67697;50.750;-3.270;2023-10-09T01:55:38;101620.51;;;13.91;63.35
78409;BME280;67697;50.750;-3.270;2023-10-09T01:58:04;101615.76;;;13.60;65.17
78409;BME280;67697;50.750;-3.270;2023-10-09T02:00:29;101614.86;;;11.30;72.46
78409;BME280;67697;50.750;-3.270;2023-10-09T02:02:54;101605.53;;;12.57;70.28
78409;BME280;67697;50.750;-3.270;2023-10-09T02:05:20;101604.48;;;12.88;67.76
78409;BME280;67697;50.750;-3.270;2023-10-09T02:07:45;101603.51;;;12.97;68.22
78409;BME280;67697;50.750;-3.270;2023-10-09T02:10:13;101597.49;;;13.40;67.42
78409;BME280;67697;50.750;-3.270;2023-10-09T02:12:36;101594.15;;;14.27;63.83
78409;BME280;67697;50.750;-3.270;2023-10-09T02:15:02;101594.81;;;14.65;63.50
78409;BME280;67697;50.750;-3.270;2023-10-09T02:17:27;101589.39;;;13.36;67.25
78409;BME280;67697;50.750;-3.270;2023-10-09T02:19:53;101586.25;;;14.12;65.22
78409;BME280;67697;50.750;-3.270;2023-10-09T02:22:18;101585.50;;;13.42;67.45
78409;BME280;67697;50.750;-3.270;2023-10-09T02:24:44;101587.07;;;12.75;69.82
78409;BME280;67697;50.750;-3.270;2023-10-09T02:27:09;101582.96;;;13.95;67.15
78409;BME280;67697;50.750;-3.270;2023-10-09T02:29:34;101580.51;;;13.40;67.50
78409;BME280;67697;50.750;-3.270;2023-10-09T02:32:00;101580.48;;;13.52;67.30
78409;BME280;67697;50.750;-3.270;2023-10-09T02:34:26;101575.11;;;14.29;65.21
78409;BME280;67697;50.750;-3.270;2023-10-09T02:36:51;101576.27;;;12.71;68.47
78409;BME280;67697;50.750;-3.270;2023-10-09T02:39:17;101581.65;;;12.93;70.21
78409;BME280;67697;50.750;-3.270;2023-10-09T02:41:42;101585.14;;;13.15;69.72
78409;BME280;67697;50.750;-3.270;2023-10-09T02:44:07;101588.66;;;11.90;73.55
78409;BME280;67697;50.750;-3.270;2023-10-09T02:46:33;101587.95;;;12.31;73.04
78409;BME280;67697;50.750;-3.270;2023-10-09T02:48:58;101587.10;;;12.02;74.34
78409;BME280;67697;50.750;-3.270;2023-10-09T02:51:25;101587.14;;;12.07;74.73
78409;BME280;67697;50.750;-3.270;2023-10-09T02:53:49;101589.84;;;12.26;75.06
78409;BME280;67697;50.750;-3.270;2023-10-09T02:56:14;101589.48;;;13.16;71.67
78409;BME280;67697;50.750;-3.270;2023-10-09T02:58:40;101591.78;;;12.75;71.38
78409;BME280;67697;50.750;-3.270;2023-10-09T03:01:10;101588.90;;;13.45;68.49
78409;BME280;67697;50.750;-3.270;2023-10-09T03:03:30;101591.33;;;13.77;67.08
78409;BME280;67697;50.750;-3.270;2023-10-09T03:05:55;101594.02;;;13.54;67.38
78409;BME280;67697;50.750;-3.270;2023-10-09T03:08:20;101589.95;;;13.89;67.02
78409;BME280;67697;50.750;-3.270;2023-10-09T03:10:46;101593.10;;;14.41;65.10
78409;BME280;67697;50.750;-3.270;2023-10-09T03:13:12;101595.90;;;13.97;66.70
78409;BME280;67697;50.750;-3.270;2023-10-09T03:15:38;101596.03;;;13.66;66.09
78409;BME280;67697;50.750;-3.270;2023-10-09T03:18:03;101594.08;;;14.30;64.50
78409;BME280;67697;50.750;-3.270;2023-10-09T03:20:28;101595.72;;;12.98;67.12
78409;BME280;67697;50.750;-3.270;2023-10-09T03:22:54;101588.04;;;12.61;69.66
78409;BME280;67697;50.750;-3.270;2023-10-09T03:25:19;101589.31;;;12.25;72.12
78409;BME280;67697;50.750;-3.270;2023-10-09T03:27:44;101585.60;;;12.78;71.11
78409;BME280;67697;50.750;-3.270;2023-10-09T03:30:11;101590.20;;;12.25;74.09
78409;BME280;67697;50.750;-3.270;2023-10-09T03:32:35;101602.40;;;11.20;81.09
78409;BME280;67697;50.750;-3.270;2023-10-09T03:35:01;101596.40;;;11.38;81.75
78409;BME280;67697;50.750;-3.270;2023-10-09T03:37:26;101593.76;;;11.86;78.80
78409;BME280;67697;50.750;-3.270;2023-10-09T03:39:52;101586.35;;;12.25;76.35
78409;BME280;67697;50.750;-3.270;2023-10-09T03:42:17;101590.92;;;12.21;75.61
78409;BME280;67697;50.750;-3.270;2023-10-09T03:44:42;101591.74;;;12.60;75.69
78409;BME280;67697;50.750;-3.270;2023-10-09T03:47:07;101595.97;;;11.24;77.59
78409;BME280;67697;50.750;-3.270;2023-10-09T03:49:33;101587.77;;;12.31;73.85
78409;BME280;67697;50.750;-3.270;2023-10-09T03:51:58;101588.97;;;13.16;71.25
78409;BME280;67697;50.750;-3.270;2023-10-09T03:54:24;101588.02;;;13.23;71.45
78409;BME280;67697;50.750;-3.270;2023-10-09T03:56:50;101579.69;;;14.07;68.96
78409;BME280;67697;50.750;-3.270;2023-10-09T03:59:15;101573.45;;;14.57;67.43
78409;BME280;67697;50.750;-3.270;2023-10-09T04:01:40;101571.55;;;13.75;68.36
78409;BME280;67697;50.750;-3.270;2023-10-09T04:04:06;101568.56;;;13.79;68.79
78409;BME280;67697;50.750;-3.270;2023-10-09T04:06:32;101565.01;;;14.73;66.31
78409;BME280;67697;50.750;-3.270;2023-10-09T04:08:57;101561.33;;;14.39;65.35
78409;BME280;67697;50.750;-3.270;2023-10-09T04:11:22;101556.84;;;14.39;62.79
78409;BME280;67697;50.750;-3.270;2023-10-09T04:13:47;101554.53;;;13.41;68.26
78409;BME280;67697;50.750;-3.270;2023-10-09T04:16:13;101571.98;;;10.56;79.62
78409;BME280;67697;50.750;-3.270;2023-10-09T04:18:38;101559.47;;;11.57;76.38
78409;BME280;67697;50.750;-3.270;2023-10-09T04:21:04;101564.67;;;10.51;79.58
78409;BME280;67697;50.750;-3.270;2023-10-09T04:23:28;101559.30;;;11.86;75.94
78409;BME280;67697;50.750;-3.270;2023-10-09T04:25:54;101567.08;;;9.84;79.50
78409;BME280;67697;50.750;-3.270;2023-10-09T04:28:19;101557.89;;;12.55;72.70
78409;BME280;67697;50.750;-3.270;2023-10-09T04:30:45;101567.51;;;10.92;75.48
78409;BME280;67697;50.750;-3.270;2023-10-09T04:33:10;101559.93;;;11.40;77.15
78409;BME280;67697;50.750;-3.270;2023-10-09T04:35:35;101549.18;;;12.80;72.24
78409;BME280;67697;50.750;-3.270;2023-10-09T04:38:00;101547.61;;;13.25;69.98
78409;BME280;67697;50.750;-3.270;2023-10-09T04:40:26;101546.49;;;12.80;71.39
78409;BME280;67697;50.750;-3.270;2023-10-09T04:42:51;101542.52;;;13.71;67.20
78409;BME280;67697;50.750;-3.270;2023-10-09T04:45:16;101542.93;;;13.95;66.84
78409;BME280;67697;50.750;-3.270;2023-10-09T04:47:42;101544.09;;;13.94;65.97
78409;BME280;67697;50.750;-3.270;2023-10-09T04:50:09;101546.31;;;13.61;67.19
78409;BME280;67697;50.750;-3.270;2023-10-09T04:52:33;101547.76;;;14.68;63.57
78409;BME280;67697;50.750;-3.270;2023-10-09T04:54:59;101554.69;;;15.03;61.35
78409;BME280;67697;50.750;-3.270;2023-10-09T04:57:24;101560.82;;;14.58;61.69
78409;BME280;67697;50.750;-3.270;2023-10-09T04:59:49;101568.90;;;13.57;64.58
78409;BME280;67697;50.750;-3.270;2023-10-09T05:02:15;101566.85;;;14.05;63.49
78409;BME280;67697;50.750;-3.270;2023-10-09T05:04:40;101563.09;;;13.72;64.48
78409;BME280;67697;50.750;-3.270;2023-10-09T05:07:06;101563.40;;;12.80;66.07
78409;BME280;67697;50.750;-3.270;2023-10-09T05:09:31;101557.97;;;13.36;65.83
78409;BME280;67697;50.750;-3.270;2023-10-09T05:11:57;101552.12;;;13.28;66.94
78409;BME280;67697;50.750;-3.270;2023-10-09T05:14:23;101546.77;;;14.37;64.02
78409;BME280;67697;50.750;-3.270;2023-10-09T05:16:48;101546.02;;;14.32;63.62
78409;BME280;67697;50.750;-3.270;2023-10-09T05:19:13;101548.33;;;14.17;64.56
78409;BME280;67697;50.750;-3.270;2023-10-09T05:21:40;101552.29;;;13.29;69.40
78409;BME280;67697;50.750;-3.270;2023-10-09T05:24:05;101554.55;;;13.43;69.83
78409;BME280;67697;50.750;-3.270;2023-10-09T05:26:30;101554.46;;;13.44;69.19
78409;BME280;67697;50.750;-3.270;2023-10-09T05:28:55;101557.77;;;12.92;69.47
78409;BME280;67697;50.750;-3.270;2023-10-09T05:31:20;101555.63;;;12.83;69.61
78409;BME280;67697;50.750;-3.270;2023-10-09T05:33:45;101556.49;;;12.95;70.40
78409;BME280;67697;50.750;-3.270;2023-10-09T05:36:11;101555.35;;;13.41;67.72
78409;BME280;67697;50.750;-3.270;2023-10-09T05:38:36;101558.59;;;13.19;66.68
78409;BME280;67697;50.750;-3.270;2023-10-09T05:41:02;101557.98;;;13.55;67.03
78409;BME280;67697;50.750;-3.270;2023-10-09T05:43:27;101566.24;;;13.74;64.49
78409;BME280;67697;50.750;-3.270;2023-10-09T05:45:52;101567.93;;;13.25;67.14
78409;BME280;67697;50.750;-3.270;2023-10-09T05:48:18;101571.30;;;12.95;67.05
78409;BME280;67697;50.750;-3.270;2023-10-09T05:50:43;101570.19;;;13.58;66.11
78409;BME280;67697;50.750;-3.270;2023-10-09T05:53:08;101567.20;;;13.36;68.41
78409;BME280;67697;50.750;-3.270;2023-10-09T05:55:34;101567.21;;;13.92;66.44
78409;BME280;67697;50.750;-3.270;2023-10-09T05:57:59;101571.32;;;13.69;66.84
78409;BME280;67697;50.750;-3.270;2023-10-09T06:00:26;101582.48;;;13.04;70.86
78409;BME280;67697;50.750;-3.270;2023-10-09T06:02:51;101581.62;;;13.20;69.59
78409;BME280;67697;50.750;-3.270;2023-10-09T06:05:16;101582.48;;;12.20;70.05
78409;BME280;67697;50.750;-3.270;2023-10-09T06:07:41;101579.12;;;13.46;66.74
78409;BME280;67697;50.750;-3.270;2023-10-09T06:10:08;101579.99;;;14.37;63.78
78409;BME280;67697;50.750;-3.270;2023-10-09T06:12:31;101583.93;;;12.66;66.27
78409;BME280;67697;50.750;-3.270;2023-10-09T06:14:57;101577.41;;;14.70;61.84
78409;BME280;67697;50.750;-3.270;2023-10-09T06:17:22;101581.61;;;13.28;64.62
78409;BME280;67697;50.750;-3.270;2023-10-09T06:19:48;101585.42;;;13.92;63.03
78409;BME280;67697;50.750;-3.270;2023-10-09T06:22:13;101576.63;;;14.33;61.77
78409;BME280;67697;50.750;-3.270;2023-10-09T06:24:39;101571.81;;;13.24;65.82
78409;BME280;67697;50.750;-3.270;2023-10-09T06:27:03;101569.99;;;13.64;63.18
78409;BME280;67697;50.750;-3.270;2023-10-09T06:29:30;101568.95;;;14.34;63.39
78409;BME280;67697;50.750;-3.270;2023-10-09T06:31:54;101567.57;;;13.88;64.51
78409;BME280;67697;50.750;-3.270;2023-10-09T06:34:20;101570.22;;;14.87;62.12
78409;BME280;67697;50.750;-3.270;2023-10-09T06:36:46;101577.92;;;14.61;64.73
78409;BME280;67697;50.750;-3.270;2023-10-09T06:39:11;101578.99;;;14.61;66.14
78409;BME280;67697;50.750;-3.270;2023-10-09T06:41:36;101579.55;;;14.32;64.81
78409;BME280;67697;50.750;-3.270;2023-10-09T06:44:01;101579.02;;;14.14;66.04
78409;BME280;67697;50.750;-3.270;2023-10-09T06:46:27;101574.44;;;13.71;66.65
78409;BME280;67697;50.750;-3.270;2023-10-09T06:48:52;101569.84;;;13.92;66.27
78409;BME280;67697;50.750;-3.270;2023-10-09T06:51:17;101572.11;;;12.61;69.06
78409;BME280;67697;50.750;-3.270;2023-10-09T06:53:44;101581.16;;;14.73;63.75
78409;BME280;67697;50.750;-3.270;2023-10-09T06:56:10;101593.37;;;13.64;66.67
78409;BME280;67697;50.750;-3.270;2023-10-09T06:58:33;101581.64;;;13.43;67.28
78409;BME280;67697;50.750;-3.270;2023-10-09T07:00:59;101581.13;;;12.21;70.08
78409;BME280;67697;50.750;-3.270;2023-10-09T07:03:25;101586.02;;;12.74;70.71
78409;BME280;67697;50.750;-3.270;2023-10-09T07:05:50;101591.74;;;12.93;71.29
78409;BME280;67697;50.750;-3.270;2023-10-09T07:08:15;101591.49;;;13.91;68.21
78409;BME280;67697;50.750;-3.270;2023-10-09T07:10:40;101596.30;;;13.54;68.44
78409;BME280;67697;50.750;-3.270;2023-10-09T07:13:05;101603.31;;;14.03;67.36
78409;BME280;67697;50.750;-3.270;2023-10-09T07:15:30;101597.04;;;14.41;66.45
78409;BME280;67697;50.750;-3.270;2023-10-09T07:17:56;101583.51;;;12.58;72.27
78409;BME280;67697;50.750;-3.270;2023-10-09T07:20:21;101590.41;;;12.00;77.52
78409;BME280;67697;50.750;-3.270;2023-10-09T07:22:47;101610.14;;;12.94;74.69
78409;BME280;67697;50.750;-3.270;2023-10-09T07:25:12;101594.50;;;12.84;76.52
78409;BME280;67697;50.750;-3.270;2023-10-09T07:27:37;101589.94;;;13.69;73.41
78409;BME280;67697;50.750;-3.270;2023-10-09T07:30:03;101596.93;;;13.76;73.94
78409;BME280;67697;50.750;-3.270;2023-10-09T07:32:28;101594.48;;;15.01;67.64
78409;BME280;67697;50.750;-3.270;2023-10-09T07:34:54;101596.13;;;13.91;70.82
78409;BME280;67697;50.750;-3.270;2023-10-09T07:37:20;101605.69;;;15.65;65.83
78409;BME280;67697;50.750;-3.270;2023-10-09T07:39:44;101608.66;;;16.05;63.59
78409;BME280;67697;50.750;-3.270;2023-10-09T07:42:10;101608.23;;;14.76;66.35
78409;BME280;67697;50.750;-3.270;2023-10-09T07:44:35;101607.01;;;14.52;69.22
78409;BME280;67697;50.750;-3.270;2023-10-09T07:47:03;101598.90;;;14.59;66.84
78409;BME280;67697;50.750;-3.270;2023-10-09T07:49:26;101599.75;;;15.33;66.08
78409;BME280;67697;50.750;-3.270;2023-10-09T07:51:52;101601.33;;;15.09;66.00
78409;BME280;67697;50.750;-3.270;2023-10-09T07:54:17;101616.71;;;15.52;66.08
78409;BME280;67697;50.750;-3.270;2023-10-09T07:56:43;101607.34;;;14.53;68.83
78409;BME280;67697;50.750;-3.270;2023-10-09T07:59:08;101597.44;;;14.80;70.04
78409;BME280;67697;50.750;-3.270;2023-10-09T08:01:33;101604.74;;;14.94;69.50
78409;BME280;67697;50.750;-3.270;2023-10-09T08:03:59;101624.91;;;15.32;67.64
78409;BME280;67697;50.750;-3.270;2023-10-09T08:06:25;101632.94;;;13.51;74.21
78409;BME280;67697;50.750;-3.270;2023-10-09T08:08:50;101632.02;;;15.12;68.25
78409;BME280;67697;50.750;-3.270;2023-10-09T08:11:15;101621.89;;;14.39;68.65
78409;BME280;67697;50.750;-3.270;2023-10-09T08:13:40;101621.31;;;14.94;70.95
78409;BME280;67697;50.750;-3.270;2023-10-09T08:16:06;101625.83;;;14.04;72.30
78409;BME280;67697;50.750;-3.270;2023-10-09T08:18:32;101622.87;;;15.44;69.79
78409;BME280;67697;50.750;-3.270;2023-10-09T08:20:57;101630.32;;;16.33;66.56
78409;BME280;67697;50.750;-3.270;2023-10-09T08:23:24;101626.94;;;15.28;69.68
78409;BME280;67697;50.750;-3.270;2023-10-09T08:25:49;101622.96;;;15.74;68.36
78409;BME280;67697;50.750;-3.270;2023-10-09T08:28:14;101624.48;;;16.03;67.87
78409;BME280;67697;50.750;-3.270;2023-10-09T08:30:39;101636.42;;;15.74;68.97
78409;BME280;67697;50.750;-3.270;2023-10-09T08:33:04;101634.45;;;15.50;71.29
78409;BME280;67697;50.750;-3.270;2023-10-09T08:35:29;101634.06;;;16.28;68.83
78409;BME280;67697;50.750;-3.270;2023-10-09T08:37:55;101623.02;;;14.57;73.31
78409;BME280;67697;50.750;-3.270;2023-10-09T08:40:20;101635.14;;;14.48;75.22
78409;BME280;67697;50.750;-3.270;2023-10-09T08:42:52;101625.88;;;16.00;71.22
78409;BME280;67697;50.750;-3.270;2023-10-09T08:45:11;101640.75;;;15.10;73.01
78409;BME280;67697;50.750;-3.270;2023-10-09T08:47:36;101633.55;;;14.82;74.19
78409;BME280;67697;50.750;-3.270;2023-10-09T08:50:01;101631.31;;;15.04;77.58
78409;BME280;67697;50.750;-3.270;2023-10-09T08:52:26;101616.90;;;16.51;71.30
78409;BME280;67697;50.750;-3.270;2023-10-09T08:54:51;101606.47;;;16.67;68.39
78409;BME280;67697;50.750;-3.270;2023-10-09T08:57:17;101615.86;;;16.83;67.71
78409;BME280;67697;50.750;-3.270;2023-10-09T08:59:42;101626.61;;;17.00;67.99
78409;BME280;67697;50.750;-3.270;2023-10-09T09:02:08;101623.52;;;17.34;68.62
78409;BME280;67697;50.750;-3.270;2023-10-09T09:04:34;101627.23;;;17.65;66.56
78409;BME280;67697;50.750;-3.270;2023-10-09T09:06:58;101636.60;;;17.14;69.09
78409;BME280;67697;50.750;-3.270;2023-10-09T09:09:24;101645.64;;;15.63;74.66
78409;BME280;67697;50.750;-3.270;2023-10-09T09:11:49;101648.49;;;14.63;77.84
78409;BME280;67697;50.750;-3.270;2023-10-09T09:14:15;101649.52;;;15.69;76.46
78409;BME280;67697;50.750;-3.270;2023-10-09T09:16:41;101649.04;;;16.39;71.96
78409;BME280;67697;50.750;-3.270;2023-10-09T09:19:06;101643.22;;;17.49;69.13
78409;BME280;67697;50.750;-3.270;2023-10-09T09:21:33;101642.75;;;17.38;68.60
78409;BME280;67697;50.750;-3.270;2023-10-09T09:23:59;101647.95;;;17.61;66.39
78409;BME280;67697;50.750;-3.270;2023-10-09T09:26:34;101646.96;;;18.22;65.13
78409;BME280;67697;50.750;-3.270;2023-10-09T09:28:51;101648.52;;;18.47;64.20
78409;BME280;67697;50.750;-3.270;2023-10-09T09:31:11;101640.56;;;17.44;66.08
78409;BME280;67697;50.750;-3.270;2023-10-09T09:33:36;101634.54;;;18.27;65.27
78409;BME280;67697;50.750;-3.270;2023-10-09T09:36:03;101634.62;;;19.06;62.70
78409;BME280;67697;50.750;-3.270;2023-10-09T09:38:28;101635.68;;;17.44;67.14
78409;BME280;67697;50.750;-3.270;2023-10-09T09:40:56;101638.73;;;17.98;65.88
78409;BME280;67697;50.750;-3.270;2023-10-09T09:43:19;101641.62;;;17.84;67.06
78409;BME280;67697;50.750;-3.270;2023-10-09T09:45:45;101641.47;;;18.32;66.70
78409;BME280;67697;50.750;-3.270;2023-10-09T09:48:11;101653.34;;;17.94;68.38
78409;BME280;67697;50.750;-3.270;2023-10-09T09:50:36;101665.38;;;17.44;71.47
78409;BME280;67697;50.750;-3.270;2023-10-09T09:53:02;101666.89;;;17.51;71.80
78409;BME280;67697;50.750;-3.270;2023-10-09T09:55:34;101656.36;;;17.83;68.55
78409;BME280;67697;50.750;-3.270;2023-10-09T09:57:53;101648.81;;;18.01;68.03
78409;BME280;67697;50.750;-3.270;2023-10-09T10:00:21;101650.64;;;18.42;66.99
78409;BME280;67697;50.750;-3.270;2023-10-09T10:02:45;101665.03;;;17.73;68.29
78409;BME280;67697;50.750;-3.270;2023-10-09T10:05:11;101665.86;;;18.51;66.27
78409;BME280;67697;50.750;-3.270;2023-10-09T10:07:35;101661.20;;;17.80;68.65
78409;BME280;67697;50.750;-3.270;2023-10-09T10:10:01;101653.52;;;16.77;72.88
78409;BME280;67697;50.750;-3.270;2023-10-09T10:14:56;101655.44;;;16.53;75.38
78409;BME280;67697;50.750;-3.270;2023-10-09T10:17:16;101656.16;;;16.90;74.80
78409;BME280;67697;50.750;-3.270;2023-10-09T10:19:58;101656.25;;;17.55;72.77
78409;BME280;67697;50.750;-3.270;2023-10-09T10:24:41;101652.52;;;16.04;79.75
78409;BME280;67697;50.750;-3.270;2023-10-09T10:27:14;101646.73;;;17.37;76.28
78409;BME280;67697;50.750;-3.270;2023-10-09T10:29:23;101646.16;;;17.27;76.58
78409;BME280;67697;50.750;-3.270;2023-10-09T10:31:54;101646.30;;;17.36;78.35
78409;BME280;67697;50.750;-3.270;2023-10-09T10:34:14;101646.73;;;18.07;76.97
78409;BME280;67697;50.750;-3.270;2023-10-09T10:36:40;101641.86;;;18.61;76.64
78409;BME280;67697;50.750;-3.270;2023-10-09T10:39:06;101635.21;;;18.75;74.03
78409;BME280;67697;50.750;-3.270;2023-10-09T10:41:31;101639.62;;;17.55;78.41
78409;BME280;67697;50.750;-3.270;2023-10-09T10:43:56;101649.11;;;18.63;74.85
78409;BME280;67697;50.750;-3.270;2023-10-09T10:46:23;101640.14;;;19.01;75.42
78409;BME280;67697;50.750;-3.270;2023-10-09T10:48:48;101638.42;;;18.70;77.12
78409;BME280;67697;50.750;-3.270;2023-10-09T10:51:13;101635.74;;;19.08;74.02
78409;BME280;67697;50.750;-3.270;2023-10-09T10:56:04;101625.58;;;19.19;74.35
78409;BME280;67697;50.750;-3.270;2023-10-09T10:58:30;101622.16;;;18.78;76.96
78409;BME280;67697;50.750;-3.270;2023-10-09T11:00:55;101614.36;;;19.39;76.58
78409;BME280;67697;50.750;-3.270;2023-10-09T11:03:21;101609.90;;;19.95;73.77
78409;BME280;67697;50.750;-3.270;2023-10-09T11:05:47;101602.18;;;20.24;70.77
78409;BME280;67697;50.750;-3.270;2023-10-09T11:08:12;101599.23;;;19.34;76.19
78409;BME280;67697;50.750;-3.270;2023-10-09T11:10:37;101601.27;;;19.93;73.46
78409;BME280;67697;50.750;-3.270;2023-10-09T11:13:02;101608.69;;;20.63;70.24
78409;BME280;67697;50.750;-3.270;2023-10-09T11:15:31;101614.99;;;20.47;71.09
78409;BME280;67697;50.750;-3.270;2023-10-09T11:17:59;101616.55;;;21.34;68.40
78409;BME280;67697;50.750;-3.270;2023-10-09T11:20:19;101621.99;;;22.00;65.04
78409;BME280;67697;50.750;-3.270;2023-10-09T11:22:45;101627.69;;;21.74;65.93
78409;BME280;67697;50.750;-3.270;2023-10-09T11:25:10;101632.96;;;21.36;68.06
78409;BME280;67697;50.750;-3.270;2023-10-09T11:27:36;101626.22;;;20.75;68.63
78409;BME280;67697;50.750;-3.270;2023-10-09T11:30:02;101617.35;;;21.18;68.97
78409;BME280;67697;50.750;-3.270;2023-10-09T11:32:27;101612.53;;;21.46;67.52
78409;BME280;67697;50.750;-3.270;2023-10-09T11:37:19;101610.29;;;21.99;65.51
78409;BME280;67697;50.750;-3.270;2023-10-09T11:39:43;101609.35;;;22.70;62.60
78409;BME280;67697;50.750;-3.270;2023-10-09T11:42:09;101607.59;;;23.40;60.50
78409;BME280;67697;50.750;-3.270;2023-10-09T11:44:36;101614.43;;;21.36;62.45
78409;BME280;67697;50.750;-3.270;2023-10-09T11:47:01;101616.03;;;21.27;65.96
78409;BME280;67697;50.750;-3.270;2023-10-09T11:49:26;101615.46;;;22.23;63.81
78409;BME280;67697;50.750;-3.270;2023-10-09T11:51:51;101609.64;;;22.81;57.57
78409;BME280;67697;50.750;-3.270;2023-10-09T11:56:41;101608.40;;;22.97;58.05
78409;BME280;67697;50.750;-3.270;2023-10-09T11:59:07;101605.77;;;22.77;57.53
78409;BME280;67697;50.750;-3.270;2023-10-09T12:01:32;101601.60;;;23.09;55.86
78409;BME280;67697;50.750;-3.270;2023-10-09T12:03:57;101603.37;;;22.80;57.95
78409;BME280;67697;50.750;-3.270;2023-10-09T12:06:23;101602.29;;;23.53;56.56
78409;BME280;67697;50.750;-3.270;2023-10-09T12:08:48;101591.99;;;23.74;56.64
78409;BME280;67697;50.750;-3.270;2023-10-09T12:11:13;101591.44;;;20.54;64.65
78409;BME280;67697;50.750;-3.270;2023-10-09T12:13:39;101586.78;;;23.61;57.34
78409;BME280;67697;50.750;-3.270;2023-10-09T12:16:05;101582.97;;;23.09;58.54
78409;BME280;67697;50.750;-3.270;2023-10-09T12:18:29;101580.28;;;22.54;60.82
78409;BME280;67697;50.750;-3.270;2023-10-09T12:20:55;101575.08;;;22.88;60.77
78409;BME280;67697;50.750;-3.270;2023-10-09T12:23:22;101570.88;;;23.56;58.49
78409;BME280;67697;50.750;-3.270;2023-10-09T12:25:48;101561.96;;;23.17;59.08
78409;BME280;67697;50.750;-3.270;2023-10-09T12:28:12;101559.97;;;24.06;58.42
78409;BME280;67697;50.750;-3.270;2023-10-09T12:30:37;101555.88;;;24.14;56.90
78409;BME280;67697;50.750;-3.270;2023-10-09T12:33:03;101550.75;;;23.28;59.52
78409;BME280;67697;50.750;-3.270;2023-10-09T12:35:28;101545.87;;;21.87;62.93
78409;BME280;67697;50.750;-3.270;2023-10-09T12:37:54;101541.85;;;23.21;60.07
78409;BME280;67697;50.750;-3.270;2023-10-09T12:40:19;101538.80;;;23.62;58.44
78409;BME280;67697;50.750;-3.270;2023-10-09T12:42:44;101536.69;;;24.08;56.78